Airfield :
LOGIN :

Register | Disclaimer

   EN    FR    IT 

 










Legend :    VFR   Marginal VFR   IFR   Intensive IFR   Very Intensive IFR
Visi :
Ceiling :
>= 8 km
>= 3000ft
5 to 8 km
1000 to 3000 ft
1500m to 5 km
500 to 1000 ft
800 to 1500m
200 to 500 ft
< 800m
< 200 ft
Symbols :   Thunderstorms  Fog  Heavy snow  Heavy precipitations  Wind > 20 kt
SIGMETs :     Misc.  Thunderstorms  Icing  Turbulence  Mountain Waves  Volcanic Ashes







- Airport Elevation : 287 ft
- Download approach charts


LFRL - Lanveoc Poulmic

CURRENT METAR :
  • 270630Z AUTO 32007KT 9999 BKN009 BKN015 BKN023 13/11 Q1017 BECMG SCT025

EXPIRED METARs :
  • 270600Z AUTO 31007KT 9999 SCT008 SCT014 BKN022 12/11 Q1017 NOSIG
  • 270530Z AUTO 32006KT 9999 BKN008 BKN015 OVC180 12/11 Q1017 BECMG SCT025
  • 270500Z AUTO 31008KT 9999 BKN008 BKN012 OVC150 12/11 Q1017
  • 270430Z AUTO 32007KT 9999 BKN008 OVC013 12/10 Q1016

TAF TAF LFRL
Valid from the 27 at 06:00 until the 28 at 06:00 UTC


270500Z 2706/2806 32010KT 9999 FEW010 BKN015
BECMG 2706/2709 SCT025
BECMG 2711/2713 30012G22KT
TEMPO 2800/2806 4000 SHRA SCT013TCU BKN020
No reported NOTAMs for that airfield.



MET'MAP, your aeronautical weather chart ! - Copyright ORBIFLY December 2007 - Disclaimer

ORBIFLY MET'MAP TEAM :

Programming & Development : Alexandra Zaïnal
Concept & Development : Baudouin d'Aumeries
Co-Development & Prog : Marc-Olivier Méhu
Technical & hardware support : Manuel Goepfert

Contact : metmap@orbifly.com




SOURCES & CREDITS :

   NOAA